sensor_id;sensor_type;location;lat;lon;timestamp;P1;durP1;ratioP1;P2;durP2;ratioP2
45764;SDS011;31474;45.332;10.230;2023-08-06T00:00:25;7.55;;;3.67;;
45764;SDS011;31474;45.332;10.230;2023-08-06T00:02:50;6.20;;;3.85;;
45764;SDS011;31474;45.332;10.230;2023-08-06T00:05:16;6.57;;;3.25;;
45764;SDS011;31474;45.332;10.230;2023-08-06T00:07:49;4.88;;;4.32;;
45764;SDS011;31474;45.332;10.230;2023-08-06T00:10:15;5.15;;;3.85;;
45764;SDS011;31474;45.332;10.230;2023-08-06T00:12:42;5.43;;;3.90;;
45764;SDS011;31474;45.332;10.230;2023-08-06T00:15:09;7.85;;;3.80;;
45764;SDS011;31474;45.332;10.230;2023-08-06T00:17:35;5.18;;;3.78;;
45764;SDS011;31474;45.332;10.230;2023-08-06T00:20:01;8.25;;;3.85;;
45764;SDS011;31474;45.332;10.230;2023-08-06T00:22:30;9.07;;;4.05;;
45764;SDS011;31474;45.332;10.230;2023-08-06T00:25:00;6.88;;;3.97;;
45764;SDS011;31474;45.332;10.230;2023-08-06T00:27:25;7.65;;;4.25;;
45764;SDS011;31474;45.332;10.230;2023-08-06T00:29:51;5.22;;;3.95;;
45764;SDS011;31474;45.332;10.230;2023-08-06T00:32:17;5.65;;;3.50;;
45764;SDS011;31474;45.332;10.230;2023-08-06T00:34:43;6.68;;;3.92;;
45764;SDS011;31474;45.332;10.230;2023-08-06T00:37:09;4.63;;;3.60;;
45764;SDS011;31474;45.332;10.230;2023-08-06T00:39:34;7.20;;;3.80;;
45764;SDS011;31474;45.332;10.230;2023-08-06T00:42:00;6.15;;;3.53;;
45764;SDS011;31474;45.332;10.230;2023-08-06T00:44:26;3.58;;;3.25;;
45764;SDS011;31474;45.332;10.230;2023-08-06T00:46:52;6.55;;;3.60;;
45764;SDS011;31474;45.332;10.230;2023-08-06T00:49:18;4.32;;;3.85;;
45764;SDS011;31474;45.332;10.230;2023-08-06T00:51:44;5.55;;;3.42;;
45764;SDS011;31474;45.332;10.230;2023-08-06T00:54:09;5.25;;;3.38;;
45764;SDS011;31474;45.332;10.230;2023-08-06T00:56:35;7.05;;;3.65;;
45764;SDS011;31474;45.332;10.230;2023-08-06T00:59:03;5.50;;;3.28;;
45764;SDS011;31474;45.332;10.230;2023-08-06T01:01:31;6.88;;;3.33;;
45764;SDS011;31474;45.332;10.230;2023-08-06T01:03:57;6.47;;;3.70;;
45764;SDS011;31474;45.332;10.230;2023-08-06T01:06:39;7.03;;;3.33;;
45764;SDS011;31474;45.332;10.230;2023-08-06T01:09:30;9.23;;;4.28;;
45764;SDS011;31474;45.332;10.230;2023-08-06T01:12:05;7.15;;;3.88;;
45764;SDS011;31474;45.332;10.230;2023-08-06T01:17:22;7.63;;;3.60;;
45764;SDS011;31474;45.332;10.230;2023-08-06T01:19:51;8.18;;;3.58;;
45764;SDS011;31474;45.332;10.230;2023-08-06T01:22:17;5.40;;;3.72;;
45764;SDS011;31474;45.332;10.230;2023-08-06T01:24:44;6.72;;;3.80;;
45764;SDS011;31474;45.332;10.230;2023-08-06T01:33:00;6.82;;;3.30;;
45764;SDS011;31474;45.332;10.230;2023-08-06T01:35:28;13.70;;;4.28;;
45764;SDS011;31474;45.332;10.230;2023-08-06T01:37:55;7.72;;;3.85;;
45764;SDS011;31474;45.332;10.230;2023-08-06T01:40:21;10.15;;;3.60;;
45764;SDS011;31474;45.332;10.230;2023-08-06T01:42:47;6.57;;;3.17;;
45764;SDS011;31474;45.332;10.230;2023-08-06T01:45:12;9.27;;;3.25;;
45764;SDS011;31474;45.332;10.230;2023-08-06T01:47:39;7.25;;;3.80;;
45764;SDS011;31474;45.332;10.230;2023-08-06T01:50:04;4.93;;;3.20;;
45764;SDS011;31474;45.332;10.230;2023-08-06T01:52:30;8.13;;;3.30;;
45764;SDS011;31474;45.332;10.230;2023-08-06T01:54:56;6.18;;;3.58;;
45764;SDS011;31474;45.332;10.230;2023-08-06T01:57:22;4.47;;;2.97;;
45764;SDS011;31474;45.332;10.230;2023-08-06T01:59:47;7.22;;;3.30;;
45764;SDS011;31474;45.332;10.230;2023-08-06T02:02:13;10.00;;;3.30;;
45764;SDS011;31474;45.332;10.230;2023-08-06T02:04:39;5.65;;;3.25;;
45764;SDS011;31474;45.332;10.230;2023-08-06T02:07:04;13.52;;;3.67;;
45764;SDS011;31474;45.332;10.230;2023-08-06T02:09:30;8.95;;;3.40;;
45764;SDS011;31474;45.332;10.230;2023-08-06T02:11:56;5.05;;;3.30;;
45764;SDS011;31474;45.332;10.230;2023-08-06T02:14:21;9.70;;;3.10;;
45764;SDS011;31474;45.332;10.230;2023-08-06T02:16:47;7.07;;;3.50;;
45764;SDS011;31474;45.332;10.230;2023-08-06T02:19:14;3.78;;;2.70;;
45764;SDS011;31474;45.332;10.230;2023-08-06T02:21:39;7.22;;;3.38;;
45764;SDS011;31474;45.332;10.230;2023-08-06T02:24:05;6.85;;;3.40;;
45764;SDS011;31474;45.332;10.230;2023-08-06T02:26:31;8.27;;;3.05;;
45764;SDS011;31474;45.332;10.230;2023-08-06T02:28:56;10.10;;;2.88;;
45764;SDS011;31474;45.332;10.230;2023-08-06T02:31:22;10.45;;;3.22;;
45764;SDS011;31474;45.332;10.230;2023-08-06T02:33:47;6.55;;;3.10;;
45764;SDS011;31474;45.332;10.230;2023-08-06T02:36:13;6.80;;;3.05;;
45764;SDS011;31474;45.332;10.230;2023-08-06T02:38:39;4.80;;;3.00;;
45764;SDS011;31474;45.332;10.230;2023-08-06T02:41:04;7.25;;;2.92;;
45764;SDS011;31474;45.332;10.230;2023-08-06T02:43:30;10.63;;;4.47;;
45764;SDS011;31474;45.332;10.230;2023-08-06T02:45:57;10.48;;;3.22;;
45764;SDS011;31474;45.332;10.230;2023-08-06T02:48:23;6.82;;;3.58;;
45764;SDS011;31474;45.332;10.230;2023-08-06T02:50:49;6.25;;;2.75;;
45764;SDS011;31474;45.332;10.230;2023-08-06T02:53:15;6.50;;;3.03;;
45764;SDS011;31474;45.332;10.230;2023-08-06T02:55:44;5.13;;;2.63;;
45764;SDS011;31474;45.332;10.230;2023-08-06T02:58:12;5.00;;;3.20;;
45764;SDS011;31474;45.332;10.230;2023-08-06T03:00:39;5.60;;;3.35;;
45764;SDS011;31474;45.332;10.230;2023-08-06T03:03:04;5.85;;;3.00;;
45764;SDS011;31474;45.332;10.230;2023-08-06T03:05:30;5.20;;;2.72;;
45764;SDS011;31474;45.332;10.230;2023-08-06T03:07:55;8.50;;;3.03;;
45764;SDS011;31474;45.332;10.230;2023-08-06T03:10:21;8.68;;;3.75;;
45764;SDS011;31474;45.332;10.230;2023-08-06T03:12:47;4.68;;;2.80;;
45764;SDS011;31474;45.332;10.230;2023-08-06T03:15:12;7.95;;;3.15;;
45764;SDS011;31474;45.332;10.230;2023-08-06T03:17:38;6.20;;;2.95;;
45764;SDS011;31474;45.332;10.230;2023-08-06T03:20:05;6.05;;;3.13;;
45764;SDS011;31474;45.332;10.230;2023-08-06T03:22:31;5.68;;;2.92;;
45764;SDS011;31474;45.332;10.230;2023-08-06T03:24:56;8.68;;;2.63;;
45764;SDS011;31474;45.332;10.230;2023-08-06T03:27:22;5.35;;;3.50;;
45764;SDS011;31474;45.332;10.230;2023-08-06T03:29:51;5.78;;;2.67;;
45764;SDS011;31474;45.332;10.230;2023-08-06T03:32:16;5.05;;;2.58;;
45764;SDS011;31474;45.332;10.230;2023-08-06T03:34:42;8.98;;;2.53;;
45764;SDS011;31474;45.332;10.230;2023-08-06T03:37:08;6.10;;;2.67;;
45764;SDS011;31474;45.332;10.230;2023-08-06T03:39:34;6.03;;;3.00;;
45764;SDS011;31474;45.332;10.230;2023-08-06T03:41:59;5.03;;;2.50;;
45764;SDS011;31474;45.332;10.230;2023-08-06T03:44:25;3.65;;;2.10;;
45764;SDS011;31474;45.332;10.230;2023-08-06T03:46:52;9.15;;;3.17;;
45764;SDS011;31474;45.332;10.230;2023-08-06T03:49:17;6.70;;;2.67;;
45764;SDS011;31474;45.332;10.230;2023-08-06T03:51:43;4.57;;;2.50;;
45764;SDS011;31474;45.332;10.230;2023-08-06T03:54:09;6.65;;;2.40;;
45764;SDS011;31474;45.332;10.230;2023-08-06T03:56:34;10.85;;;2.78;;
45764;SDS011;31474;45.332;10.230;2023-08-06T03:59:00;5.65;;;2.78;;
45764;SDS011;31474;45.332;10.230;2023-08-06T04:01:25;6.60;;;3.28;;
45764;SDS011;31474;45.332;10.230;2023-08-06T04:03:51;7.63;;;3.10;;
45764;SDS011;31474;45.332;10.230;2023-08-06T04:06:17;3.88;;;2.28;;
45764;SDS011;31474;45.332;10.230;2023-08-06T04:08:42;7.15;;;2.97;;
45764;SDS011;31474;45.332;10.230;2023-08-06T04:11:08;4.97;;;2.45;;
45764;SDS011;31474;45.332;10.230;2023-08-06T04:13:34;6.68;;;2.92;;
45764;SDS011;31474;45.332;10.230;2023-08-06T04:16:03;7.20;;;3.33;;
45764;SDS011;31474;45.332;10.230;2023-08-06T04:18:29;6.05;;;3.33;;
45764;SDS011;31474;45.332;10.230;2023-08-06T04:20:54;5.50;;;3.13;;
45764;SDS011;31474;45.332;10.230;2023-08-06T04:23:22;7.55;;;3.22;;
45764;SDS011;31474;45.332;10.230;2023-08-06T04:25:48;3.08;;;2.78;;
45764;SDS011;31474;45.332;10.230;2023-08-06T04:28:13;4.22;;;3.33;;
45764;SDS011;31474;45.332;10.230;2023-08-06T04:30:39;5.85;;;3.63;;
45764;SDS011;31474;45.332;10.230;2023-08-06T04:33:04;3.42;;;2.92;;
45764;SDS011;31474;45.332;10.230;2023-08-06T04:35:30;6.20;;;3.08;;
45764;SDS011;31474;45.332;10.230;2023-08-06T04:37:56;10.77;;;3.65;;
45764;SDS011;31474;45.332;10.230;2023-08-06T04:40:21;7.13;;;3.90;;
45764;SDS011;31474;45.332;10.230;2023-08-06T04:42:47;4.95;;;4.45;;
45764;SDS011;31474;45.332;10.230;2023-08-06T04:45:13;7.57;;;3.80;;
45764;SDS011;31474;45.332;10.230;2023-08-06T04:47:38;8.38;;;3.15;;
45764;SDS011;31474;45.332;10.230;2023-08-06T04:50:04;4.18;;;3.50;;
45764;SDS011;31474;45.332;10.230;2023-08-06T04:52:30;10.02;;;3.33;;
45764;SDS011;31474;45.332;10.230;2023-08-06T04:54:57;8.43;;;3.83;;
45764;SDS011;31474;45.332;10.230;2023-08-06T04:57:23;7.28;;;3.33;;
45764;SDS011;31474;45.332;10.230;2023-08-06T04:59:48;6.50;;;3.25;;
45764;SDS011;31474;45.332;10.230;2023-08-06T05:02:14;9.20;;;3.72;;
45764;SDS011;31474;45.332;10.230;2023-08-06T05:04:40;8.63;;;4.38;;
45764;SDS011;31474;45.332;10.230;2023-08-06T05:07:06;7.00;;;4.20;;
45764;SDS011;31474;45.332;10.230;2023-08-06T05:09:31;11.48;;;4.53;;
45764;SDS011;31474;45.332;10.230;2023-08-06T05:11:57;6.05;;;4.32;;
45764;SDS011;31474;45.332;10.230;2023-08-06T05:14:25;5.97;;;3.97;;
45764;SDS011;31474;45.332;10.230;2023-08-06T05:16:51;12.48;;;4.78;;
45764;SDS011;31474;45.332;10.230;2023-08-06T05:19:16;6.00;;;3.90;;
45764;SDS011;31474;45.332;10.230;2023-08-06T05:21:42;12.13;;;4.53;;
45764;SDS011;31474;45.332;10.230;2023-08-06T05:24:08;6.22;;;4.15;;
45764;SDS011;31474;45.332;10.230;2023-08-06T05:26:33;7.28;;;4.00;;
45764;SDS011;31474;45.332;10.230;2023-08-06T05:29:00;9.23;;;4.28;;
45764;SDS011;31474;45.332;10.230;2023-08-06T05:31:25;5.00;;;3.45;;
45764;SDS011;31474;45.332;10.230;2023-08-06T05:33:51;6.20;;;3.55;;
45764;SDS011;31474;45.332;10.230;2023-08-06T05:36:17;4.93;;;3.45;;
45764;SDS011;31474;45.332;10.230;2023-08-06T05:38:42;5.95;;;3.80;;
45764;SDS011;31474;45.332;10.230;2023-08-06T05:41:08;6.32;;;4.78;;
45764;SDS011;31474;45.332;10.230;2023-08-06T05:43:34;5.90;;;4.72;;
45764;SDS011;31474;45.332;10.230;2023-08-06T05:45:59;8.55;;;4.63;;
45764;SDS011;31474;45.332;10.230;2023-08-06T05:48:25;8.93;;;5.20;;
45764;SDS011;31474;45.332;10.230;2023-08-06T05:50:52;6.25;;;4.28;;
45764;SDS011;31474;45.332;10.230;2023-08-06T05:53:18;6.35;;;5.15;;
45764;SDS011;31474;45.332;10.230;2023-08-06T05:55:44;6.07;;;4.53;;
45764;SDS011;31474;45.332;10.230;2023-08-06T05:58:10;6.43;;;5.30;;
45764;SDS011;31474;45.332;10.230;2023-08-06T06:00:36;8.80;;;4.45;;
45764;SDS011;31474;45.332;10.230;2023-08-06T06:03:01;8.90;;;4.80;;
45764;SDS011;31474;45.332;10.230;2023-08-06T06:05:27;5.00;;;4.40;;
45764;SDS011;31474;45.332;10.230;2023-08-06T06:07:53;8.38;;;3.85;;
45764;SDS011;31474;45.332;10.230;2023-08-06T06:10:19;6.20;;;4.28;;
45764;SDS011;31474;45.332;10.230;2023-08-06T06:12:45;13.43;;;4.75;;
45764;SDS011;31474;45.332;10.230;2023-08-06T06:15:10;6.82;;;4.10;;
45764;SDS011;31474;45.332;10.230;2023-08-06T06:17:36;5.38;;;4.45;;
45764;SDS011;31474;45.332;10.230;2023-08-06T06:20:02;6.40;;;4.15;;
45764;SDS011;31474;45.332;10.230;2023-08-06T06:22:29;6.25;;;4.95;;
45764;SDS011;31474;45.332;10.230;2023-08-06T06:24:55;6.45;;;4.80;;
45764;SDS011;31474;45.332;10.230;2023-08-06T06:27:20;4.93;;;4.20;;
45764;SDS011;31474;45.332;10.230;2023-08-06T06:29:46;5.28;;;4.32;;
45764;SDS011;31474;45.332;10.230;2023-08-06T06:32:12;6.00;;;4.03;;
45764;SDS011;31474;45.332;10.230;2023-08-06T06:34:37;7.93;;;4.43;;
45764;SDS011;31474;45.332;10.230;2023-08-06T06:37:03;5.50;;;3.60;;
45764;SDS011;31474;45.332;10.230;2023-08-06T06:39:29;6.10;;;4.00;;
45764;SDS011;31474;45.332;10.230;2023-08-06T06:41:54;8.02;;;3.95;;
45764;SDS011;31474;45.332;10.230;2023-08-06T06:44:20;4.45;;;3.38;;
45764;SDS011;31474;45.332;10.230;2023-08-06T06:46:46;4.68;;;3.40;;
45764;SDS011;31474;45.332;10.230;2023-08-06T06:49:12;11.25;;;3.30;;
45764;SDS011;31474;45.332;10.230;2023-08-06T06:51:37;5.05;;;3.72;;
45764;SDS011;31474;45.332;10.230;2023-08-06T06:54:03;4.43;;;2.88;;
45764;SDS011;31474;45.332;10.230;2023-08-06T06:56:29;5.47;;;3.83;;
45764;SDS011;31474;45.332;10.230;2023-08-06T06:58:54;5.25;;;3.25;;
45764;SDS011;31474;45.332;10.230;2023-08-06T07:01:20;5.60;;;3.30;;
45764;SDS011;31474;45.332;10.230;2023-08-06T07:03:46;7.80;;;3.30;;
45764;SDS011;31474;45.332;10.230;2023-08-06T07:06:11;4.40;;;3.05;;
45764;SDS011;31474;45.332;10.230;2023-08-06T07:08:37;5.22;;;2.63;;
45764;SDS011;31474;45.332;10.230;2023-08-06T07:11:04;2.72;;;2.42;;
45764;SDS011;31474;45.332;10.230;2023-08-06T07:13:30;5.70;;;1.85;;
45764;SDS011;31474;45.332;10.230;2023-08-06T07:15:57;2.35;;;1.90;;
45764;SDS011;31474;45.332;10.230;2023-08-06T07:18:23;3.95;;;1.90;;
45764;SDS011;31474;45.332;10.230;2023-08-06T07:20:49;2.70;;;2.00;;
45764;SDS011;31474;45.332;10.230;2023-08-06T07:23:16;2.10;;;1.60;;
45764;SDS011;31474;45.332;10.230;2023-08-06T07:25:43;5.75;;;2.15;;
45764;SDS011;31474;45.332;10.230;2023-08-06T07:28:09;5.57;;;2.10;;
45764;SDS011;31474;45.332;10.230;2023-08-06T07:30:38;3.40;;;2.00;;
45764;SDS011;31474;45.332;10.230;2023-08-06T07:33:04;4.68;;;2.05;;
45764;SDS011;31474;45.332;10.230;2023-08-06T07:35:30;3.85;;;2.17;;
45764;SDS011;31474;45.332;10.230;2023-08-06T07:37:56;4.75;;;2.05;;
45764;SDS011;31474;45.332;10.230;2023-08-06T07:40:21;4.72;;;1.80;;
45764;SDS011;31474;45.332;10.230;2023-08-06T07:42:47;3.97;;;3.15;;
45764;SDS011;31474;45.332;10.230;2023-08-06T07:45:13;4.22;;;1.92;;
45764;SDS011;31474;45.332;10.230;2023-08-06T07:47:39;4.35;;;1.85;;
45764;SDS011;31474;45.332;10.230;2023-08-06T07:50:05;3.20;;;2.00;;
45764;SDS011;31474;45.332;10.230;2023-08-06T07:52:31;4.57;;;2.15;;
45764;SDS011;31474;45.332;10.230;2023-08-06T07:54:57;2.42;;;2.10;;
45764;SDS011;31474;45.332;10.230;2023-08-06T07:57:23;5.70;;;2.40;;
45764;SDS011;31474;45.332;10.230;2023-08-06T07:59:49;4.28;;;2.08;;
45764;SDS011;31474;45.332;10.230;2023-08-06T08:02:15;4.78;;;1.65;;
45764;SDS011;31474;45.332;10.230;2023-08-06T08:04:40;4.53;;;1.88;;
45764;SDS011;31474;45.332;10.230;2023-08-06T08:07:06;2.22;;;2.03;;
45764;SDS011;31474;45.332;10.230;2023-08-06T08:09:32;2.08;;;1.48;;
45764;SDS011;31474;45.332;10.230;2023-08-06T08:12:00;2.20;;;1.27;;
45764;SDS011;31474;45.332;10.230;2023-08-06T08:14:27;5.13;;;1.60;;
45764;SDS011;31474;45.332;10.230;2023-08-06T08:16:54;2.25;;;1.88;;
45764;SDS011;31474;45.332;10.230;2023-08-06T08:19:19;3.53;;;1.50;;
45764;SDS011;31474;45.332;10.230;2023-08-06T08:21:46;3.70;;;1.98;;
45764;SDS011;31474;45.332;10.230;2023-08-06T08:24:11;3.55;;;1.58;;
45764;SDS011;31474;45.332;10.230;2023-08-06T08:26:37;1.67;;;1.25;;
45764;SDS011;31474;45.332;10.230;2023-08-06T08:29:03;5.32;;;1.55;;
45764;SDS011;31474;45.332;10.230;2023-08-06T08:31:28;2.35;;;1.45;;
45764;SDS011;31474;45.332;10.230;2023-08-06T08:33:54;7.55;;;2.10;;
45764;SDS011;31474;45.332;10.230;2023-08-06T08:36:20;1.60;;;1.13;;
45764;SDS011;31474;45.332;10.230;2023-08-06T08:38:46;2.40;;;1.30;;
45764;SDS011;31474;45.332;10.230;2023-08-06T08:41:12;3.08;;;1.50;;
45764;SDS011;31474;45.332;10.230;2023-08-06T08:43:38;1.60;;;1.15;;
45764;SDS011;31474;45.332;10.230;2023-08-06T08:46:05;1.80;;;1.00;;
45764;SDS011;31474;45.332;10.230;2023-08-06T08:48:33;1.70;;;1.40;;
45764;SDS011;31474;45.332;10.230;2023-08-06T08:50:59;1.80;;;1.40;;
45764;SDS011;31474;45.332;10.230;2023-08-06T08:53:25;4.38;;;1.50;;
45764;SDS011;31474;45.332;10.230;2023-08-06T08:55:52;6.88;;;1.30;;
45764;SDS011;31474;45.332;10.230;2023-08-06T08:58:19;1.25;;;0.77;;
45764;SDS011;31474;45.332;10.230;2023-08-06T09:00:45;1.80;;;1.48;;
45764;SDS011;31474;45.332;10.230;2023-08-06T09:03:13;3.80;;;1.40;;
45764;SDS011;31474;45.332;10.230;2023-08-06T09:05:40;2.20;;;1.30;;
45764;SDS011;31474;45.332;10.230;2023-08-06T09:08:11;3.03;;;1.20;;
45764;SDS011;31474;45.332;10.230;2023-08-06T09:10:40;5.55;;;1.33;;
45764;SDS011;31474;45.332;10.230;2023-08-06T09:13:08;3.03;;;1.50;;
45764;SDS011;31474;45.332;10.230;2023-08-06T09:15:33;4.00;;;2.08;;
45764;SDS011;31474;45.332;10.230;2023-08-06T09:17:59;5.47;;;1.50;;
45764;SDS011;31474;45.332;10.230;2023-08-06T09:20:25;3.08;;;1.30;;
45764;SDS011;31474;45.332;10.230;2023-08-06T09:22:54;3.50;;;1.75;;
45764;SDS011;31474;45.332;10.230;2023-08-06T09:25:23;2.00;;;1.38;;
45764;SDS011;31474;45.332;10.230;2023-08-06T09:27:50;5.22;;;1.08;;
45764;SDS011;31474;45.332;10.230;2023-08-06T09:30:38;3.60;;;1.35;;
45764;SDS011;31474;45.332;10.230;2023-08-06T09:33:03;2.58;;;1.38;;
45764;SDS011;31474;45.332;10.230;2023-08-06T09:35:33;2.05;;;1.40;;
45764;SDS011;31474;45.332;10.230;2023-08-06T09:38:08;2.17;;;1.08;;
45764;SDS011;31474;45.332;10.230;2023-08-06T09:40:35;4.28;;;1.30;;
45764;SDS011;31474;45.332;10.230;2023-08-06T09:43:02;2.25;;;1.30;;
45764;SDS011;31474;45.332;10.230;2023-08-06T09:45:32;3.50;;;1.30;;
45764;SDS011;31474;45.332;10.230;2023-08-06T09:48:00;2.35;;;1.17;;
45764;SDS011;31474;45.332;10.230;2023-08-06T09:50:29;3.88;;;1.30;;
45764;SDS011;31474;45.332;10.230;2023-08-06T09:53:01;5.85;;;1.13;;
45764;SDS011;31474;45.332;10.230;2023-08-06T09:55:28;2.00;;;1.20;;
45764;SDS011;31474;45.332;10.230;2023-08-06T09:57:54;3.78;;;1.23;;
45764;SDS011;31474;45.332;10.230;2023-08-06T10:00:21;1.73;;;1.25;;
45764;SDS011;31474;45.332;10.230;2023-08-06T10:02:48;1.55;;;0.90;;
45764;SDS011;31474;45.332;10.230;2023-08-06T10:05:16;3.55;;;1.70;;
45764;SDS011;31474;45.332;10.230;2023-08-06T10:07:43;4.57;;;1.00;;
45764;SDS011;31474;45.332;10.230;2023-08-06T10:10:09;1.45;;;0.85;;
45764;SDS011;31474;45.332;10.230;2023-08-06T10:12:37;2.00;;;0.93;;
45764;SDS011;31474;45.332;10.230;2023-08-06T10:15:10;6.13;;;1.05;;
45764;SDS011;31474;45.332;10.230;2023-08-06T10:17:39;2.90;;;1.20;;
45764;SDS011;31474;45.332;10.230;2023-08-06T10:20:07;1.85;;;1.05;;
45764;SDS011;31474;45.332;10.230;2023-08-06T10:22:33;1.70;;;1.10;;
45764;SDS011;31474;45.332;10.230;2023-08-06T10:25:00;3.90;;;1.38;;
45764;SDS011;31474;45.332;10.230;2023-08-06T10:32:50;1.67;;;1.00;;
45764;SDS011;31474;45.332;10.230;2023-08-06T10:40:31;2.20;;;0.98;;
45764;SDS011;31474;45.332;10.230;2023-08-06T10:43:00;2.28;;;0.80;;
45764;SDS011;31474;45.332;10.230;2023-08-06T10:45:33;1.60;;;0.80;;
45764;SDS011;31474;45.332;10.230;2023-08-06T10:48:00;1.20;;;0.57;;
45764;SDS011;31474;45.332;10.230;2023-08-06T10:50:25;1.30;;;0.50;;
45764;SDS011;31474;45.332;10.230;2023-08-06T10:52:51;1.17;;;0.40;;
45764;SDS011;31474;45.332;10.230;2023-08-06T10:55:24;0.88;;;0.40;;
45764;SDS011;31474;45.332;10.230;2023-08-06T10:57:54;1.00;;;0.70;;
45764;SDS011;31474;45.332;10.230;2023-08-06T11:00:23;1.02;;;0.60;;
45764;SDS011;31474;45.332;10.230;2023-08-06T11:02:50;2.22;;;0.30;;
45764;SDS011;31474;45.332;10.230;2023-08-06T11:05:16;1.85;;;0.50;;
45764;SDS011;31474;45.332;10.230;2023-08-06T11:07:42;0.65;;;0.30;;
45764;SDS011;31474;45.332;10.230;2023-08-06T11:10:09;3.30;;;0.80;;
45764;SDS011;31474;45.332;10.230;2023-08-06T11:12:39;0.75;;;0.38;;
45764;SDS011;31474;45.332;10.230;2023-08-06T11:15:05;1.48;;;0.40;;
45764;SDS011;31474;45.332;10.230;2023-08-06T11:17:32;0.73;;;0.63;;
45764;SDS011;31474;45.332;10.230;2023-08-06T11:20:05;1.05;;;0.30;;
45764;SDS011;31474;45.332;10.230;2023-08-06T11:22:31;0.80;;;0.60;;
45764;SDS011;31474;45.332;10.230;2023-08-06T11:24:57;0.80;;;0.40;;
45764;SDS011;31474;45.332;10.230;2023-08-06T11:27:23;1.17;;;0.45;;
45764;SDS011;31474;45.332;10.230;2023-08-06T11:29:51;1.30;;;0.50;;
45764;SDS011;31474;45.332;10.230;2023-08-06T11:32:17;0.93;;;0.40;;
45764;SDS011;31474;45.332;10.230;2023-08-06T11:34:43;3.55;;;0.57;;
45764;SDS011;31474;45.332;10.230;2023-08-06T11:37:08;0.80;;;0.45;;
45764;SDS011;31474;45.332;10.230;2023-08-06T11:39:35;0.60;;;0.30;;
45764;SDS011;31474;45.332;10.230;2023-08-06T11:42:02;0.60;;;0.30;;
45764;SDS011;31474;45.332;10.230;2023-08-06T11:44:30;1.17;;;0.88;;
45764;SDS011;31474;45.332;10.230;2023-08-06T11:46:58;0.82;;;0.28;;
45764;SDS011;31474;45.332;10.230;2023-08-06T11:49:45;0.70;;;0.40;;
45764;SDS011;31474;45.332;10.230;2023-08-06T11:57:11;0.85;;;0.40;;
45764;SDS011;31474;45.332;10.230;2023-08-06T11:59:38;2.13;;;0.38;;
45764;SDS011;31474;45.332;10.230;2023-08-06T12:02:04;0.45;;;0.20;;
45764;SDS011;31474;45.332;10.230;2023-08-06T12:07:28;3.00;;;0.50;;
45764;SDS011;31474;45.332;10.230;2023-08-06T12:09:55;1.05;;;0.40;;
45764;SDS011;31474;45.332;10.230;2023-08-06T12:12:21;0.60;;;0.30;;
45764;SDS011;31474;45.332;10.230;2023-08-06T12:14:46;2.00;;;0.63;;
45764;SDS011;31474;45.332;10.230;2023-08-06T12:17:12;1.95;;;0.50;;
45764;SDS011;31474;45.332;10.230;2023-08-06T12:19:38;0.95;;;0.38;;
45764;SDS011;31474;45.332;10.230;2023-08-06T12:22:03;1.00;;;0.43;;
45764;SDS011;31474;45.332;10.230;2023-08-06T12:24:29;0.45;;;0.25;;
45764;SDS011;31474;45.332;10.230;2023-08-06T12:26:57;1.83;;;0.40;;
45764;SDS011;31474;45.332;10.230;2023-08-06T12:29:23;0.63;;;0.38;;
45764;SDS011;31474;45.332;10.230;2023-08-06T12:31:50;1.00;;;0.70;;
45764;SDS011;31474;45.332;10.230;2023-08-06T12:34:16;0.68;;;0.30;;
45764;SDS011;31474;45.332;10.230;2023-08-06T12:36:42;3.35;;;0.60;;
45764;SDS011;31474;45.332;10.230;2023-08-06T12:39:07;1.70;;;0.50;;
45764;SDS011;31474;45.332;10.230;2023-08-06T12:41:33;2.20;;;0.30;;
45764;SDS011;31474;45.332;10.230;2023-08-06T12:43:59;1.60;;;0.30;;
45764;SDS011;31474;45.332;10.230;2023-08-06T12:46:24;2.42;;;0.40;;
45764;SDS011;31474;45.332;10.230;2023-08-06T12:48:50;0.90;;;0.50;;
45764;SDS011;31474;45.332;10.230;2023-08-06T12:51:15;1.48;;;0.60;;
45764;SDS011;31474;45.332;10.230;2023-08-06T12:53:41;0.82;;;0.30;;
45764;SDS011;31474;45.332;10.230;2023-08-06T12:56:07;1.52;;;0.28;;
45764;SDS011;31474;45.332;10.230;2023-08-06T12:58:32;2.67;;;0.50;;
45764;SDS011;31474;45.332;10.230;2023-08-06T13:00:58;1.25;;;0.35;;
45764;SDS011;31474;45.332;10.230;2023-08-06T13:03:24;1.70;;;0.30;;
45764;SDS011;31474;45.332;10.230;2023-08-06T13:05:49;0.77;;;0.47;;
45764;SDS011;31474;45.332;10.230;2023-08-06T13:08:15;0.82;;;0.40;;
45764;SDS011;31474;45.332;10.230;2023-08-06T13:10:42;0.57;;;0.38;;
45764;SDS011;31474;45.332;10.230;2023-08-06T13:13:07;2.35;;;0.55;;
45764;SDS011;31474;45.332;10.230;2023-08-06T13:15:35;1.08;;;0.30;;
45764;SDS011;31474;45.332;10.230;2023-08-06T13:18:01;0.43;;;0.25;;
45764;SDS011;31474;45.332;10.230;2023-08-06T13:20:26;0.80;;;0.47;;
45764;SDS011;31474;45.332;10.230;2023-08-06T13:22:55;0.70;;;0.40;;
45764;SDS011;31474;45.332;10.230;2023-08-06T13:25:20;0.77;;;0.40;;
45764;SDS011;31474;45.332;10.230;2023-08-06T13:27:46;0.82;;;0.40;;
45764;SDS011;31474;45.332;10.230;2023-08-06T13:30:12;2.20;;;0.50;;
45764;SDS011;31474;45.332;10.230;2023-08-06T13:32:38;1.38;;;0.35;;
45764;SDS011;31474;45.332;10.230;2023-08-06T13:35:04;0.40;;;0.30;;
45764;SDS011;31474;45.332;10.230;2023-08-06T13:37:30;0.90;;;0.38;;
45764;SDS011;31474;45.332;10.230;2023-08-06T13:39:56;0.70;;;0.40;;
45764;SDS011;31474;45.332;10.230;2023-08-06T13:42:22;1.23;;;0.43;;
45764;SDS011;31474;45.332;10.230;2023-08-06T13:44:47;0.90;;;0.40;;
45764;SDS011;31474;45.332;10.230;2023-08-06T13:47:13;1.83;;;0.30;;
45764;SDS011;31474;45.332;10.230;2023-08-06T13:49:39;1.15;;;0.57;;
45764;SDS011;31474;45.332;10.230;2023-08-06T13:52:05;3.20;;;0.43;;
45764;SDS011;31474;45.332;10.230;2023-08-06T13:54:30;2.30;;;0.50;;
45764;SDS011;31474;45.332;10.230;2023-08-06T13:56:56;0.52;;;0.28;;
45764;SDS011;31474;45.332;10.230;2023-08-06T13:59:22;1.30;;;0.50;;
45764;SDS011;31474;45.332;10.230;2023-08-06T14:01:49;1.20;;;0.43;;
45764;SDS011;31474;45.332;10.230;2023-08-06T14:04:15;0.50;;;0.30;;
45764;SDS011;31474;45.332;10.230;2023-08-06T14:06:41;1.65;;;0.30;;
45764;SDS011;31474;45.332;10.230;2023-08-06T14:09:07;3.70;;;0.50;;
45764;SDS011;31474;45.332;10.230;2023-08-06T14:11:33;1.55;;;0.60;;
45764;SDS011;31474;45.332;10.230;2023-08-06T14:13:59;2.33;;;0.50;;
45764;SDS011;31474;45.332;10.230;2023-08-06T14:16:25;5.15;;;0.77;;
45764;SDS011;31474;45.332;10.230;2023-08-06T14:18:51;1.17;;;0.43;;
45764;SDS011;31474;45.332;10.230;2023-08-06T14:21:16;0.68;;;0.30;;
45764;SDS011;31474;45.332;10.230;2023-08-06T14:23:42;3.85;;;0.50;;
45764;SDS011;31474;45.332;10.230;2023-08-06T14:26:08;4.65;;;0.47;;
45764;SDS011;31474;45.332;10.230;2023-08-06T14:28:35;0.35;;;0.20;;
45764;SDS011;31474;45.332;10.230;2023-08-06T14:31:01;1.35;;;0.32;;
45764;SDS011;31474;45.332;10.230;2023-08-06T14:33:27;3.28;;;0.63;;
45764;SDS011;31474;45.332;10.230;2023-08-06T14:35:53;3.08;;;0.47;;
45764;SDS011;31474;45.332;10.230;2023-08-06T14:38:18;1.35;;;0.40;;
45764;SDS011;31474;45.332;10.230;2023-08-06T14:40:44;1.73;;;0.60;;
45764;SDS011;31474;45.332;10.230;2023-08-06T14:43:10;1.40;;;0.52;;
45764;SDS011;31474;45.332;10.230;2023-08-06T14:45:39;0.55;;;0.30;;
45764;SDS011;31474;45.332;10.230;2023-08-06T14:48:05;1.25;;;0.50;;
45764;SDS011;31474;45.332;10.230;2023-08-06T14:50:31;1.20;;;0.43;;
45764;SDS011;31474;45.332;10.230;2023-08-06T14:52:57;1.00;;;0.35;;
45764;SDS011;31474;45.332;10.230;2023-08-06T14:55:25;2.60;;;0.30;;